createdAt,value
2022-10-23T00:00:03.755Z,100214.25
2022-10-23T00:04:21.877Z,100207.13
2022-10-23T00:08:38.839Z,100213.97
2022-10-23T00:12:55.388Z,100225.47
2022-10-23T00:17:12.545Z,100223.25
2022-10-23T00:21:29.021Z,100218.91
2022-10-23T00:25:45.157Z,100223.84
2022-10-23T00:30:02.023Z,100218.09
2022-10-23T00:34:19.649Z,100227.22
2022-10-23T00:38:36.209Z,100228.41
2022-10-23T00:42:52.398Z,100227.56
2022-10-23T00:47:09.085Z,100235.78
2022-10-23T00:51:28.183Z,100243.34
2022-10-23T00:55:47.106Z,100240.59
2022-10-23T01:00:03.735Z,100251.00
2022-10-23T01:04:20.237Z,100261.84
2022-10-23T01:08:49.036Z,100285.06
2022-10-23T01:13:24.172Z,100291.59
2022-10-23T01:18:02.484Z,100291.25
2022-10-23T01:22:37.111Z,100286.91
2022-10-23T01:27:14.867Z,100295.44
2022-10-23T01:31:39.881Z,100297.38
2022-10-23T01:36:04.268Z,100288.88
2022-10-23T01:40:35.196Z,100291.50
2022-10-23T01:45:01.893Z,100308.91
2022-10-23T01:49:18.007Z,100304.75
2022-10-23T01:53:38.701Z,100306.44
2022-10-23T01:57:55.090Z,100302.31
2022-10-23T02:02:13.242Z,100302.03
2022-10-23T02:06:29.412Z,100301.50
2022-10-23T02:10:53.073Z,100309.88
2022-10-23T02:15:15.118Z,100308.00
2022-10-23T02:19:41.685Z,100303.38
2022-10-23T02:24:05.954Z,100294.97
2022-10-23T02:28:26.449Z,100297.69
2022-10-23T02:32:47.345Z,100296.03
2022-10-23T02:37:03.918Z,100292.75
2022-10-23T02:41:42.622Z,100294.37
2022-10-23T02:46:18.613Z,100297.38
2022-10-23T02:50:53.929Z,100299.59
2022-10-23T02:55:30.672Z,100307.78
2022-10-23T03:00:00.875Z,100309.97
2022-10-23T03:04:19.275Z,100310.50
2022-10-23T03:08:58.172Z,100316.22
2022-10-23T03:13:14.331Z,100318.19
2022-10-23T03:17:30.497Z,100317.91
2022-10-23T03:21:46.672Z,100317.34
2022-10-23T03:26:02.937Z,100323.38
2022-10-23T03:30:19.574Z,100316.25
2022-10-23T03:34:35.846Z,100323.91
2022-10-23T03:38:52.000Z,100326.66
2022-10-23T03:43:08.137Z,100331.59
2022-10-23T03:47:24.256Z,100313.53
2022-10-23T03:51:41.953Z,100316.00
2022-10-23T03:55:58.052Z,100316.81
2022-10-23T04:00:14.527Z,100328.59
2022-10-23T04:04:30.607Z,100334.59
2022-10-23T04:08:46.769Z,100337.34
2022-10-23T04:13:02.878Z,100334.34
2022-10-23T04:17:19.025Z,100334.34
2022-10-23T04:21:35.187Z,100326.94
2022-10-23T04:25:51.380Z,100331.34
2022-10-23T04:30:09.347Z,100317.94
2022-10-23T04:34:25.494Z,100313.53
2022-10-23T04:38:41.648Z,100320.12
2022-10-23T04:42:57.833Z,100324.75
2022-10-23T04:47:14.057Z,100320.66
2022-10-23T04:51:30.308Z,100328.59
2022-10-23T04:55:53.985Z,100329.41
2022-10-23T05:00:12.984Z,100328.03
2022-10-23T05:04:29.074Z,100320.12
2022-10-23T05:08:45.273Z,100326.41
2022-10-23T05:13:01.677Z,100327.22
2022-10-23T05:17:21.374Z,100330.50
2022-10-23T05:21:39.527Z,100342.28
2022-10-23T05:25:55.673Z,100326.41
2022-10-23T05:30:12.755Z,100328.31
2022-10-23T05:34:31.028Z,100351.03
2022-10-23T05:38:47.419Z,100351.19
2022-10-23T05:43:03.559Z,100354.78
2022-10-23T05:47:19.682Z,100360.47
2022-10-23T05:51:40.297Z,100356.13
2022-10-23T05:55:56.475Z,100370.88
2022-10-23T06:00:13.300Z,100380.78
2022-10-23T06:04:29.480Z,100378.44
2022-10-23T06:08:45.655Z,100380.72
2022-10-23T06:13:01.715Z,100399.25
2022-10-23T06:17:17.856Z,100398.22
2022-10-23T06:21:38.160Z,100404.72
2022-10-23T06:25:55.984Z,100394.41
2022-10-23T06:30:12.727Z,100390.63
2022-10-23T06:34:28.918Z,100399.63
2022-10-23T06:38:45.018Z,100395.47
2022-10-23T06:43:01.119Z,100392.72
2022-10-23T06:51:38.357Z,100410.66
2022-10-23T06:55:59.164Z,100412.88
2022-10-23T07:00:15.435Z,100400.97
2022-10-23T07:04:31.700Z,100395.84
2022-10-23T07:08:47.950Z,100406.59
2022-10-23T07:13:04.114Z,100408.69
2022-10-23T07:17:20.245Z,100412.50
2022-10-23T07:21:36.685Z,100409.50
2022-10-23T07:25:52.923Z,100405.75
2022-10-23T07:30:09.501Z,100422.41
2022-10-23T07:34:26.005Z,100418.91
2022-10-23T07:38:42.280Z,100415.34
2022-10-23T07:42:58.459Z,100408.00
2022-10-23T07:47:14.524Z,100413.19
2022-10-23T07:51:30.597Z,100404.66
2022-10-23T07:56:17.891Z,100400.53
2022-10-23T08:00:33.999Z,100408.09
2022-10-23T08:04:50.972Z,100405.34
2022-10-23T08:09:07.288Z,100419.41
2022-10-23T08:13:23.759Z,100415.38
2022-10-23T08:17:40.046Z,100412.47
2022-10-23T08:21:57.555Z,100407.59
2022-10-23T08:26:13.939Z,100404.91
2022-10-23T08:30:30.125Z,100397.28
2022-10-23T08:34:46.659Z,100376.97
2022-10-23T08:39:02.866Z,100389.81
2022-10-23T08:43:42.041Z,100382.84
2022-10-23T08:48:04.572Z,100389.22
2022-10-23T08:53:09.013Z,100394.06
2022-10-23T08:57:33.438Z,100380.59
2022-10-23T09:02:13.701Z,100382.22
2022-10-23T09:06:35.959Z,100374.16
2022-10-23T09:10:59.292Z,100375.44
2022-10-23T09:15:15.375Z,100379.44
2022-10-23T09:19:32.408Z,100384.84
2022-10-23T09:23:48.699Z,100384.28
2022-10-23T09:28:05.840Z,100380.41
2022-10-23T09:32:38.220Z,100379.31
2022-10-23T09:37:00.895Z,100370.53
2022-10-23T09:41:27.869Z,100360.75
2022-10-23T09:45:44.135Z,100362.22
2022-10-23T09:50:00.363Z,100362.03
2022-10-23T09:54:17.043Z,100368.84
2022-10-23T09:58:39.590Z,100369.50
2022-10-23T10:03:04.418Z,100361.63
2022-10-23T10:07:33.476Z,100356.47
2022-10-23T10:11:55.534Z,100365.22
2022-10-23T10:16:27.344Z,100356.72
2022-10-23T10:21:11.276Z,100349.37
2022-10-23T10:25:37.981Z,100336.09
2022-10-23T10:30:18.720Z,100337.88
2022-10-23T10:34:38.020Z,100316.84
2022-10-23T10:38:59.967Z,100320.28
2022-10-23T10:43:25.916Z,100302.38
2022-10-23T10:48:04.287Z,100295.88
2022-10-23T10:52:29.842Z,100284.16
2022-10-23T10:56:47.984Z,100280.06
2022-10-23T11:01:14.209Z,100280.25
2022-10-23T11:05:34.940Z,100281.59
2022-10-23T11:09:51.935Z,100277.06
2022-10-23T11:14:34.948Z,100268.00
2022-10-23T11:19:18.367Z,100257.81
2022-10-23T11:23:40.254Z,100258.16
2022-10-23T11:28:15.539Z,100241.72
2022-10-23T11:32:49.838Z,100240.78
2022-10-23T11:37:07.071Z,100231.72
2022-10-23T11:41:27.144Z,100228.38
2022-10-23T11:45:43.582Z,100223.34
2022-10-23T11:50:09.083Z,100220.94
2022-10-23T11:54:27.469Z,100217.66
2022-10-23T11:58:56.711Z,100217.84
2022-10-23T12:03:23.192Z,100205.66
2022-10-23T12:07:41.930Z,100197.97
2022-10-23T12:12:09.624Z,100213.37
2022-10-23T12:16:36.676Z,100208.16
2022-10-23T12:21:03.490Z,100194.19
2022-10-23T12:25:33.930Z,100183.75
2022-10-23T12:30:08.865Z,100175.31
2022-10-23T12:34:34.903Z,100176.47
2022-10-23T12:38:51.140Z,100176.06
2022-10-23T12:43:24.840Z,100164.84
2022-10-23T12:47:41.183Z,100156.19
2022-10-23T12:52:02.799Z,100158.94
2022-10-23T12:56:19.217Z,100154.53
2022-10-23T13:00:35.395Z,100150.91
2022-10-23T13:04:53.840Z,100141.19
2022-10-23T13:09:20.405Z,100140.59
2022-10-23T13:13:36.895Z,100143.28
2022-10-23T13:17:58.771Z,100129.28
2022-10-23T13:22:21.978Z,100125.84
2022-10-23T13:26:45.416Z,100126.94
2022-10-23T13:31:13.727Z,100135.19
2022-10-23T13:35:29.862Z,100131.50
2022-10-23T13:39:46.238Z,100125.03
2022-10-23T13:44:02.614Z,100119.00
2022-10-23T13:48:19.767Z,100119.69
2022-10-23T13:52:35.897Z,100117.69
2022-10-23T13:56:52.948Z,100118.50
2022-10-23T14:01:17.319Z,100110.94
2022-10-23T14:05:33.708Z,100111.78
2022-10-23T14:09:50.710Z,100100.59
2022-10-23T14:14:07.330Z,100103.88
2022-10-23T14:18:23.686Z,100104.63
2022-10-23T14:22:39.758Z,100114.19
2022-10-23T14:26:57.716Z,100103.62
2022-10-23T14:31:16.844Z,100114.94
2022-10-23T14:35:32.994Z,100105.56
2022-10-23T14:39:50.299Z,100097.25
2022-10-23T14:44:06.778Z,100095.28
2022-10-23T14:48:25.863Z,100094.63
2022-10-23T14:52:42.464Z,100088.13
2022-10-23T14:56:58.662Z,100084.94
2022-10-23T15:01:14.930Z,100087.84
2022-10-23T15:05:31.283Z,100086.34
2022-10-23T15:09:47.522Z,100087.06
2022-10-23T15:14:03.753Z,100081.84
2022-10-23T15:18:21.709Z,100079.34
2022-10-23T15:22:37.890Z,100074.25
2022-10-23T15:26:54.106Z,100082.06
2022-10-23T15:31:30.683Z,100065.16
2022-10-23T15:35:47.041Z,100063.22
2022-10-23T15:40:03.524Z,100071.78
2022-10-23T15:44:21.640Z,100077.34
2022-10-23T15:48:37.771Z,100096.53
2022-10-23T15:52:53.971Z,100105.28
2022-10-23T15:57:11.171Z,100103.84
2022-10-23T16:01:27.987Z,100114.34
2022-10-23T16:05:44.177Z,100113.28
2022-10-23T16:10:00.513Z,100105.91
2022-10-23T16:14:17.719Z,100120.41
2022-10-23T16:18:33.787Z,100125.09
2022-10-23T16:22:49.912Z,100127.12
2022-10-23T16:27:06.439Z,100120.94
2022-10-23T16:31:25.930Z,100124.94
2022-10-23T16:35:42.072Z,100131.84
2022-10-23T16:39:58.871Z,100128.44
2022-10-23T16:44:15.003Z,100104.84
2022-10-23T16:48:31.605Z,100099.94
2022-10-23T16:52:49.117Z,100116.34
2022-10-23T16:57:07.113Z,100129.03
2022-10-23T17:01:26.681Z,100145.81
2022-10-23T17:05:43.045Z,100163.31
2022-10-23T17:09:59.444Z,100161.22
2022-10-23T17:14:19.926Z,100154.16
2022-10-23T17:18:39.876Z,100146.41
2022-10-23T17:22:59.896Z,100131.19
2022-10-23T17:27:16.126Z,100140.78
2022-10-23T17:31:35.360Z,100133.41
2022-10-23T17:35:52.597Z,100133.13
2022-10-23T17:40:09.315Z,100124.69
2022-10-23T17:44:25.524Z,100128.72
2022-10-23T17:48:43.996Z,100134.41
2022-10-23T17:53:00.199Z,100123.19
2022-10-23T17:57:16.355Z,100134.66
2022-10-23T18:01:32.891Z,100138.38
2022-10-23T18:05:49.279Z,100134.19
2022-10-23T18:10:06.240Z,100119.69
2022-10-23T18:14:25.113Z,100125.63
2022-10-23T18:18:51.879Z,100116.91
2022-10-23T18:23:08.466Z,100121.66
2022-10-23T18:27:24.761Z,100120.72
2022-10-23T18:31:41.682Z,100111.91
2022-10-23T18:35:57.851Z,100122.47
2022-10-23T18:40:14.170Z,100110.28
2022-10-23T18:44:30.645Z,100110.41
2022-10-23T18:48:47.664Z,100087.09
2022-10-23T18:53:04.240Z,100094.56
2022-10-23T18:57:20.417Z,100109.69
2022-10-23T19:01:37.135Z,100112.84
2022-10-23T19:05:54.004Z,100125.09
2022-10-23T19:10:12.282Z,100139.66
2022-10-23T19:14:30.195Z,100127.66
2022-10-23T19:18:56.061Z,100111.75
2022-10-23T19:23:15.228Z,100098.25
2022-10-23T19:27:32.341Z,100108.53
2022-10-23T19:31:49.490Z,100090.84
2022-10-23T19:36:11.174Z,100091.16
2022-10-23T19:40:30.227Z,100085.16
2022-10-23T19:44:46.390Z,100091.63
2022-10-23T19:49:02.712Z,100105.06
2022-10-23T19:53:19.293Z,100109.94
2022-10-23T19:57:35.888Z,100109.13
2022-10-23T20:01:52.174Z,100105.69
2022-10-23T20:06:13.562Z,100099.97
2022-10-23T20:10:30.111Z,100099.16
2022-10-23T20:14:46.566Z,100109.75
2022-10-23T20:19:07.364Z,100109.13
2022-10-23T20:23:23.590Z,100127.38
2022-10-23T20:27:39.940Z,100127.56
2022-10-23T20:31:56.177Z,100123.94
2022-10-23T20:36:26.970Z,100116.78
2022-10-23T20:40:43.163Z,100108.72
2022-10-23T20:44:59.392Z,100101.06
2022-10-23T20:49:16.093Z,100093.84
2022-10-23T20:53:32.441Z,100087.72
2022-10-23T20:57:48.632Z,100077.53
2022-10-23T21:02:05.050Z,100073.03
2022-10-23T21:06:21.256Z,100063.69
2022-10-23T21:10:44.379Z,100065.97
2022-10-23T21:15:00.482Z,100067.34
2022-10-23T21:19:16.763Z,100061.22
2022-10-23T21:23:32.891Z,100050.41
2022-10-23T21:27:49.023Z,100060.91
2022-10-23T21:32:05.312Z,100065.75
2022-10-23T21:36:23.821Z,100079.81
2022-10-23T21:40:39.917Z,100088.09
2022-10-23T21:44:56.110Z,100090.00
2022-10-23T21:49:12.288Z,100090.06
2022-10-23T21:53:29.305Z,100096.06
2022-10-23T21:57:45.494Z,100071.28
2022-10-23T22:02:01.758Z,100066.44
2022-10-23T22:06:24.149Z,100069.16
2022-10-23T22:10:40.399Z,100070.69
2022-10-23T22:14:56.626Z,100077.84
2022-10-23T22:19:14.486Z,100083.16
2022-10-23T22:23:30.856Z,100075.81
2022-10-23T22:27:47.087Z,100081.22
2022-10-23T22:32:03.430Z,100086.78
2022-10-23T22:36:20.257Z,100078.63
2022-10-23T22:40:43.036Z,100070.50
2022-10-23T22:45:01.874Z,100076.84
2022-10-23T22:49:17.996Z,100075.63
2022-10-23T22:53:34.588Z,100091.03
2022-10-23T22:57:50.948Z,100090.28
2022-10-23T23:02:07.119Z,100089.94
2022-10-23T23:06:23.858Z,100078.69
2022-10-23T23:10:40.759Z,100076.72
2022-10-23T23:14:59.113Z,100064.59
2022-10-23T23:19:15.259Z,100061.03
2022-10-23T23:23:31.948Z,100051.91
2022-10-23T23:27:48.870Z,100055.69
2022-10-23T23:32:06.393Z,100062.50
2022-10-23T23:36:25.178Z,100056.22
2022-10-23T23:40:41.684Z,100052.03
2022-10-23T23:45:03.132Z,100060.25
2022-10-23T23:49:29.600Z,100056.97
2022-10-23T23:53:45.772Z,100060.59
2022-10-23T23:58:02.278Z,100065.16
